sensor_id;sensor_type;location;lat;lon;timestamp;P1;durP1;ratioP1;P2;durP2;ratioP2
19537;SDS011;9914;51.008;4.300;2022-08-24T00:00:06;4.30;;;3.90;;
19537;SDS011;9914;51.008;4.300;2022-08-24T00:02:35;4.80;;;3.93;;
19537;SDS011;9914;51.008;4.300;2022-08-24T00:05:00;5.20;;;3.90;;
19537;SDS011;9914;51.008;4.300;2022-08-24T00:07:26;5.53;;;4.10;;
19537;SDS011;9914;51.008;4.300;2022-08-24T00:09:52;4.93;;;3.93;;
19537;SDS011;9914;51.008;4.300;2022-08-24T00:12:18;5.07;;;3.77;;
19537;SDS011;9914;51.008;4.300;2022-08-24T00:14:44;6.57;;;3.90;;
19537;SDS011;9914;51.008;4.300;2022-08-24T00:17:09;5.27;;;3.83;;
19537;SDS011;9914;51.008;4.300;2022-08-24T00:19:36;4.47;;;3.97;;
19537;SDS011;9914;51.008;4.300;2022-08-24T00:22:01;5.43;;;4.13;;
19537;SDS011;9914;51.008;4.300;2022-08-24T00:24:28;4.33;;;3.60;;
19537;SDS011;9914;51.008;4.300;2022-08-24T00:26:53;4.30;;;3.90;;
19537;SDS011;9914;51.008;4.300;2022-08-24T00:29:20;4.87;;;4.10;;
19537;SDS011;9914;51.008;4.300;2022-08-24T00:31:46;9.40;;;3.97;;
19537;SDS011;9914;51.008;4.300;2022-08-24T00:34:12;6.40;;;3.87;;
19537;SDS011;9914;51.008;4.300;2022-08-24T00:36:38;4.17;;;3.67;;
19537;SDS011;9914;51.008;4.300;2022-08-24T00:39:05;5.27;;;3.90;;
19537;SDS011;9914;51.008;4.300;2022-08-24T00:41:32;4.80;;;3.83;;
19537;SDS011;9914;51.008;4.300;2022-08-24T00:44:00;5.27;;;3.87;;
19537;SDS011;9914;51.008;4.300;2022-08-24T00:46:48;5.03;;;3.80;;
19537;SDS011;9914;51.008;4.300;2022-08-24T00:54:47;7.30;;;3.47;;
19537;SDS011;9914;51.008;4.300;2022-08-24T00:57:19;5.67;;;3.90;;
19537;SDS011;9914;51.008;4.300;2022-08-24T00:59:50;6.23;;;4.20;;
19537;SDS011;9914;51.008;4.300;2022-08-24T01:02:22;4.53;;;4.13;;
19537;SDS011;9914;51.008;4.300;2022-08-24T01:04:56;6.63;;;4.10;;
19537;SDS011;9914;51.008;4.300;2022-08-24T01:07:24;5.63;;;4.07;;
19537;SDS011;9914;51.008;4.300;2022-08-24T01:09:54;8.70;;;3.80;;
19537;SDS011;9914;51.008;4.300;2022-08-24T01:12:23;4.20;;;3.80;;
19537;SDS011;9914;51.008;4.300;2022-08-24T01:14:50;8.33;;;4.60;;
19537;SDS011;9914;51.008;4.300;2022-08-24T01:17:16;7.37;;;4.50;;
19537;SDS011;9914;51.008;4.300;2022-08-24T01:20:01;4.60;;;4.07;;
19537;SDS011;9914;51.008;4.300;2022-08-24T01:25:30;6.33;;;4.50;;
19537;SDS011;9914;51.008;4.300;2022-08-24T01:27:59;7.20;;;5.00;;
19537;SDS011;9914;51.008;4.300;2022-08-24T01:30:28;9.70;;;4.90;;
19537;SDS011;9914;51.008;4.300;2022-08-24T01:32:56;7.67;;;4.67;;
19537;SDS011;9914;51.008;4.300;2022-08-24T01:35:23;4.87;;;4.27;;
19537;SDS011;9914;51.008;4.300;2022-08-24T01:37:49;6.07;;;4.53;;
19537;SDS011;9914;51.008;4.300;2022-08-24T01:40:16;7.47;;;5.03;;
19537;SDS011;9914;51.008;4.300;2022-08-24T01:42:50;5.23;;;4.73;;
19537;SDS011;9914;51.008;4.300;2022-08-24T01:45:17;6.77;;;5.73;;
19537;SDS011;9914;51.008;4.300;2022-08-24T01:47:44;6.63;;;6.03;;
19537;SDS011;9914;51.008;4.300;2022-08-24T01:50:10;8.80;;;6.93;;
19537;SDS011;9914;51.008;4.300;2022-08-24T01:52:37;6.70;;;6.03;;
19537;SDS011;9914;51.008;4.300;2022-08-24T01:55:09;7.30;;;6.23;;
19537;SDS011;9914;51.008;4.300;2022-08-24T01:57:37;10.47;;;6.37;;
19537;SDS011;9914;51.008;4.300;2022-08-24T02:00:04;10.37;;;6.10;;
19537;SDS011;9914;51.008;4.300;2022-08-24T02:02:32;7.03;;;6.30;;
19537;SDS011;9914;51.008;4.300;2022-08-24T02:04:58;7.83;;;5.87;;
19537;SDS011;9914;51.008;4.300;2022-08-24T02:07:24;7.10;;;6.10;;
19537;SDS011;9914;51.008;4.300;2022-08-24T02:09:50;8.03;;;6.27;;
19537;SDS011;9914;51.008;4.300;2022-08-24T02:12:16;6.63;;;5.73;;
19537;SDS011;9914;51.008;4.300;2022-08-24T02:14:43;8.30;;;6.03;;
19537;SDS011;9914;51.008;4.300;2022-08-24T02:17:09;7.17;;;6.40;;
19537;SDS011;9914;51.008;4.300;2022-08-24T02:19:35;13.13;;;6.50;;
19537;SDS011;9914;51.008;4.300;2022-08-24T02:22:01;9.50;;;6.57;;
19537;SDS011;9914;51.008;4.300;2022-08-24T02:24:27;9.17;;;5.90;;
19537;SDS011;9914;51.008;4.300;2022-08-24T02:26:54;7.60;;;6.40;;
19537;SDS011;9914;51.008;4.300;2022-08-24T02:29:20;7.50;;;6.00;;
19537;SDS011;9914;51.008;4.300;2022-08-24T02:31:46;6.50;;;5.90;;
19537;SDS011;9914;51.008;4.300;2022-08-24T02:34:12;8.03;;;6.77;;
19537;SDS011;9914;51.008;4.300;2022-08-24T02:36:38;8.67;;;6.63;;
19537;SDS011;9914;51.008;4.300;2022-08-24T02:39:05;7.93;;;6.47;;
19537;SDS011;9914;51.008;4.300;2022-08-24T02:41:32;10.63;;;6.70;;
19537;SDS011;9914;51.008;4.300;2022-08-24T02:43:58;11.00;;;7.10;;
19537;SDS011;9914;51.008;4.300;2022-08-24T02:46:25;8.63;;;7.10;;
19537;SDS011;9914;51.008;4.300;2022-08-24T02:48:52;7.37;;;6.67;;
19537;SDS011;9914;51.008;4.300;2022-08-24T02:51:24;7.00;;;6.07;;
19537;SDS011;9914;51.008;4.300;2022-08-24T02:53:52;7.20;;;6.57;;
19537;SDS011;9914;51.008;4.300;2022-08-24T02:56:18;8.43;;;6.53;;
19537;SDS011;9914;51.008;4.300;2022-08-24T02:58:45;8.57;;;6.53;;
19537;SDS011;9914;51.008;4.300;2022-08-24T03:01:13;6.33;;;5.63;;
19537;SDS011;9914;51.008;4.300;2022-08-24T03:03:39;7.73;;;6.93;;
19537;SDS011;9914;51.008;4.300;2022-08-24T03:06:06;13.33;;;6.80;;
19537;SDS011;9914;51.008;4.300;2022-08-24T03:08:32;8.63;;;6.60;;
19537;SDS011;9914;51.008;4.300;2022-08-24T03:10:58;6.73;;;6.23;;
19537;SDS011;9914;51.008;4.300;2022-08-24T03:13:25;7.70;;;5.93;;
19537;SDS011;9914;51.008;4.300;2022-08-24T03:15:51;12.67;;;6.43;;
19537;SDS011;9914;51.008;4.300;2022-08-24T03:18:17;7.43;;;5.53;;
19537;SDS011;9914;51.008;4.300;2022-08-24T03:20:43;7.50;;;5.63;;
19537;SDS011;9914;51.008;4.300;2022-08-24T03:23:09;8.93;;;5.93;;
19537;SDS011;9914;51.008;4.300;2022-08-24T03:25:34;6.97;;;6.30;;
19537;SDS011;9914;51.008;4.300;2022-08-24T03:28:00;7.43;;;6.60;;
19537;SDS011;9914;51.008;4.300;2022-08-24T03:30:26;7.57;;;6.37;;
19537;SDS011;9914;51.008;4.300;2022-08-24T03:32:52;8.13;;;6.77;;
19537;SDS011;9914;51.008;4.300;2022-08-24T03:35:18;11.33;;;7.67;;
19537;SDS011;9914;51.008;4.300;2022-08-24T03:37:46;7.47;;;6.73;;
19537;SDS011;9914;51.008;4.300;2022-08-24T03:40:13;7.83;;;7.03;;
19537;SDS011;9914;51.008;4.300;2022-08-24T03:42:39;8.90;;;7.40;;
19537;SDS011;9914;51.008;4.300;2022-08-24T03:45:05;8.50;;;7.67;;
19537;SDS011;9914;51.008;4.300;2022-08-24T03:47:31;8.57;;;7.77;;
19537;SDS011;9914;51.008;4.300;2022-08-24T03:49:57;8.33;;;7.00;;
19537;SDS011;9914;51.008;4.300;2022-08-24T03:52:22;9.60;;;7.50;;
19537;SDS011;9914;51.008;4.300;2022-08-24T03:54:48;8.20;;;7.40;;
19537;SDS011;9914;51.008;4.300;2022-08-24T03:57:14;9.10;;;7.47;;
19537;SDS011;9914;51.008;4.300;2022-08-24T03:59:39;12.43;;;7.53;;
19537;SDS011;9914;51.008;4.300;2022-08-24T04:02:06;8.03;;;6.27;;
19537;SDS011;9914;51.008;4.300;2022-08-24T04:04:32;9.27;;;6.53;;
19537;SDS011;9914;51.008;4.300;2022-08-24T04:06:58;8.10;;;6.40;;
19537;SDS011;9914;51.008;4.300;2022-08-24T04:09:24;9.13;;;7.07;;
19537;SDS011;9914;51.008;4.300;2022-08-24T04:11:50;7.90;;;6.47;;
19537;SDS011;9914;51.008;4.300;2022-08-24T04:14:16;9.23;;;7.40;;
19537;SDS011;9914;51.008;4.300;2022-08-24T04:16:43;7.77;;;7.07;;
19537;SDS011;9914;51.008;4.300;2022-08-24T04:19:10;7.37;;;6.63;;
19537;SDS011;9914;51.008;4.300;2022-08-24T04:21:37;7.37;;;6.10;;
19537;SDS011;9914;51.008;4.300;2022-08-24T04:24:03;10.10;;;6.10;;
19537;SDS011;9914;51.008;4.300;2022-08-24T04:26:30;10.87;;;7.13;;
19537;SDS011;9914;51.008;4.300;2022-08-24T04:28:56;7.23;;;6.53;;
19537;SDS011;9914;51.008;4.300;2022-08-24T04:31:23;7.97;;;6.90;;
19537;SDS011;9914;51.008;4.300;2022-08-24T04:33:49;7.60;;;6.57;;
19537;SDS011;9914;51.008;4.300;2022-08-24T04:36:17;7.17;;;5.87;;
19537;SDS011;9914;51.008;4.300;2022-08-24T04:38:44;7.33;;;5.87;;
19537;SDS011;9914;51.008;4.300;2022-08-24T04:41:11;9.30;;;6.10;;
19537;SDS011;9914;51.008;4.300;2022-08-24T04:43:38;6.47;;;5.87;;
19537;SDS011;9914;51.008;4.300;2022-08-24T04:46:09;6.03;;;5.47;;
19537;SDS011;9914;51.008;4.300;2022-08-24T04:48:36;6.20;;;5.60;;
19537;SDS011;9914;51.008;4.300;2022-08-24T04:51:03;7.40;;;6.50;;
19537;SDS011;9914;51.008;4.300;2022-08-24T04:53:31;8.77;;;7.27;;
19537;SDS011;9914;51.008;4.300;2022-08-24T04:55:58;8.10;;;7.30;;
19537;SDS011;9914;51.008;4.300;2022-08-24T04:58:24;9.40;;;7.40;;
19537;SDS011;9914;51.008;4.300;2022-08-24T05:00:51;10.77;;;7.93;;
19537;SDS011;9914;51.008;4.300;2022-08-24T05:03:17;7.80;;;7.10;;
19537;SDS011;9914;51.008;4.300;2022-08-24T05:05:44;11.27;;;6.67;;
19537;SDS011;9914;51.008;4.300;2022-08-24T05:08:11;8.10;;;6.87;;
19537;SDS011;9914;51.008;4.300;2022-08-24T05:10:38;7.47;;;6.20;;
19537;SDS011;9914;51.008;4.300;2022-08-24T05:13:05;9.37;;;5.70;;
19537;SDS011;9914;51.008;4.300;2022-08-24T05:15:31;10.53;;;6.70;;
19537;SDS011;9914;51.008;4.300;2022-08-24T05:17:58;7.63;;;6.07;;
19537;SDS011;9914;51.008;4.300;2022-08-24T05:20:24;8.13;;;5.63;;
19537;SDS011;9914;51.008;4.300;2022-08-24T05:22:54;5.50;;;5.00;;
19537;SDS011;9914;51.008;4.300;2022-08-24T05:25:20;7.30;;;6.07;;
19537;SDS011;9914;51.008;4.300;2022-08-24T05:27:46;8.40;;;5.60;;
19537;SDS011;9914;51.008;4.300;2022-08-24T05:30:12;8.03;;;5.90;;
19537;SDS011;9914;51.008;4.300;2022-08-24T05:32:38;8.67;;;6.03;;
19537;SDS011;9914;51.008;4.300;2022-08-24T05:35:06;8.77;;;5.63;;
19537;SDS011;9914;51.008;4.300;2022-08-24T05:37:33;7.60;;;6.37;;
19537;SDS011;9914;51.008;4.300;2022-08-24T05:40:01;8.50;;;6.37;;
19537;SDS011;9914;51.008;4.300;2022-08-24T05:42:28;8.77;;;6.93;;
19537;SDS011;9914;51.008;4.300;2022-08-24T05:44:53;8.33;;;7.20;;
19537;SDS011;9914;51.008;4.300;2022-08-24T05:47:19;8.10;;;6.57;;
19537;SDS011;9914;51.008;4.300;2022-08-24T05:49:44;10.23;;;7.20;;
19537;SDS011;9914;51.008;4.300;2022-08-24T05:52:10;9.93;;;8.07;;
19537;SDS011;9914;51.008;4.300;2022-08-24T05:54:36;8.57;;;7.63;;
19537;SDS011;9914;51.008;4.300;2022-08-24T05:57:02;9.70;;;8.43;;
19537;SDS011;9914;51.008;4.300;2022-08-24T05:59:29;10.53;;;8.80;;
19537;SDS011;9914;51.008;4.300;2022-08-24T06:01:55;10.23;;;8.97;;
19537;SDS011;9914;51.008;4.300;2022-08-24T06:04:21;9.87;;;8.77;;
19537;SDS011;9914;51.008;4.300;2022-08-24T06:06:46;10.27;;;9.17;;
19537;SDS011;9914;51.008;4.300;2022-08-24T06:09:13;11.57;;;8.17;;
19537;SDS011;9914;51.008;4.300;2022-08-24T06:11:39;9.27;;;8.37;;
19537;SDS011;9914;51.008;4.300;2022-08-24T06:14:07;12.13;;;8.87;;
19537;SDS011;9914;51.008;4.300;2022-08-24T06:16:35;13.80;;;8.67;;
19537;SDS011;9914;51.008;4.300;2022-08-24T06:19:06;13.03;;;8.90;;
19537;SDS011;9914;51.008;4.300;2022-08-24T06:21:33;11.77;;;8.23;;
19537;SDS011;9914;51.008;4.300;2022-08-24T06:23:59;10.93;;;8.30;;
19537;SDS011;9914;51.008;4.300;2022-08-24T06:26:26;12.57;;;8.30;;
19537;SDS011;9914;51.008;4.300;2022-08-24T06:29:11;11.43;;;8.00;;
19537;SDS011;9914;51.008;4.300;2022-08-24T06:31:37;13.30;;;9.20;;
19537;SDS011;9914;51.008;4.300;2022-08-24T06:34:05;15.37;;;9.23;;
19537;SDS011;9914;51.008;4.300;2022-08-24T06:36:31;10.93;;;9.43;;
19537;SDS011;9914;51.008;4.300;2022-08-24T06:38:57;16.27;;;11.00;;
19537;SDS011;9914;51.008;4.300;2022-08-24T06:41:23;11.77;;;10.57;;
19537;SDS011;9914;51.008;4.300;2022-08-24T06:43:50;14.30;;;10.70;;
19537;SDS011;9914;51.008;4.300;2022-08-24T06:46:16;15.00;;;11.47;;
19537;SDS011;9914;51.008;4.300;2022-08-24T06:48:42;14.07;;;12.63;;
19537;SDS011;9914;51.008;4.300;2022-08-24T06:51:09;12.70;;;10.90;;
19537;SDS011;9914;51.008;4.300;2022-08-24T06:53:37;17.57;;;14.10;;
19537;SDS011;9914;51.008;4.300;2022-08-24T06:56:06;14.43;;;12.93;;
19537;SDS011;9914;51.008;4.300;2022-08-24T07:01:09;18.77;;;16.77;;
19537;SDS011;9914;51.008;4.300;2022-08-24T07:03:45;18.67;;;16.70;;
19537;SDS011;9914;51.008;4.300;2022-08-24T07:06:11;20.90;;;16.33;;
19537;SDS011;9914;51.008;4.300;2022-08-24T07:08:38;21.30;;;17.57;;
19537;SDS011;9914;51.008;4.300;2022-08-24T07:11:08;19.13;;;17.03;;
19537;SDS011;9914;51.008;4.300;2022-08-24T07:13:35;22.40;;;18.60;;
19537;SDS011;9914;51.008;4.300;2022-08-24T07:16:01;19.60;;;17.07;;
19537;SDS011;9914;51.008;4.300;2022-08-24T07:18:27;19.10;;;17.20;;
19537;SDS011;9914;51.008;4.300;2022-08-24T07:20:53;24.10;;;18.80;;
19537;SDS011;9914;51.008;4.300;2022-08-24T07:23:19;20.67;;;18.43;;
19537;SDS011;9914;51.008;4.300;2022-08-24T07:25:46;22.97;;;18.93;;
19537;SDS011;9914;51.008;4.300;2022-08-24T07:28:13;20.27;;;18.07;;
19537;SDS011;9914;51.008;4.300;2022-08-24T07:30:40;19.67;;;16.20;;
19537;SDS011;9914;51.008;4.300;2022-08-24T07:33:06;20.67;;;17.17;;
19537;SDS011;9914;51.008;4.300;2022-08-24T07:35:33;20.07;;;17.13;;
19537;SDS011;9914;51.008;4.300;2022-08-24T07:37:59;21.20;;;17.93;;
19537;SDS011;9914;51.008;4.300;2022-08-24T07:40:26;19.03;;;17.00;;
19537;SDS011;9914;51.008;4.300;2022-08-24T07:42:53;19.37;;;16.77;;
19537;SDS011;9914;51.008;4.300;2022-08-24T07:45:21;21.80;;;16.73;;
19537;SDS011;9914;51.008;4.300;2022-08-24T07:47:48;19.83;;;15.63;;
19537;SDS011;9914;51.008;4.300;2022-08-24T07:50:14;18.03;;;16.03;;
19537;SDS011;9914;51.008;4.300;2022-08-24T07:52:41;16.43;;;14.73;;
19537;SDS011;9914;51.008;4.300;2022-08-24T07:55:08;17.20;;;15.40;;
19537;SDS011;9914;51.008;4.300;2022-08-24T07:57:36;20.53;;;14.77;;
19537;SDS011;9914;51.008;4.300;2022-08-24T08:00:04;18.37;;;15.67;;
19537;SDS011;9914;51.008;4.300;2022-08-24T08:02:34;24.73;;;14.93;;
19537;SDS011;9914;51.008;4.300;2022-08-24T08:05:01;19.63;;;15.60;;
19537;SDS011;9914;51.008;4.300;2022-08-24T08:07:28;20.03;;;15.13;;
19537;SDS011;9914;51.008;4.300;2022-08-24T08:09:54;16.70;;;13.13;;
19537;SDS011;9914;51.008;4.300;2022-08-24T08:12:19;14.70;;;12.30;;
19537;SDS011;9914;51.008;4.300;2022-08-24T08:14:45;13.97;;;12.50;;
19537;SDS011;9914;51.008;4.300;2022-08-24T08:17:12;13.67;;;12.13;;
19537;SDS011;9914;51.008;4.300;2022-08-24T08:19:39;18.30;;;12.33;;
19537;SDS011;9914;51.008;4.300;2022-08-24T08:22:05;12.47;;;9.70;;
19537;SDS011;9914;51.008;4.300;2022-08-24T08:24:50;15.07;;;10.10;;
19537;SDS011;9914;51.008;4.300;2022-08-24T08:27:15;10.63;;;9.10;;
19537;SDS011;9914;51.008;4.300;2022-08-24T08:29:41;9.50;;;8.20;;
19537;SDS011;9914;51.008;4.300;2022-08-24T08:32:09;10.10;;;7.87;;
19537;SDS011;9914;51.008;4.300;2022-08-24T08:34:41;9.00;;;8.17;;
19537;SDS011;9914;51.008;4.300;2022-08-24T08:37:07;8.93;;;7.27;;
19537;SDS011;9914;51.008;4.300;2022-08-24T08:39:33;9.90;;;6.80;;
19537;SDS011;9914;51.008;4.300;2022-08-24T08:42:15;9.63;;;7.40;;
19537;SDS011;9914;51.008;4.300;2022-08-24T08:50:32;9.23;;;6.83;;
19537;SDS011;9914;51.008;4.300;2022-08-24T09:01:23;6.97;;;6.10;;
19537;SDS011;9914;51.008;4.300;2022-08-24T09:07:26;6.23;;;5.27;;
19537;SDS011;9914;51.008;4.300;2022-08-24T09:32:56;7.50;;;5.23;;
19537;SDS011;9914;51.008;4.300;2022-08-24T09:38:22;6.83;;;5.10;;
19537;SDS011;9914;51.008;4.300;2022-08-24T09:41:24;7.00;;;4.00;;
19537;SDS011;9914;51.008;4.300;2022-08-24T10:00:46;7.97;;;3.83;;
19537;SDS011;9914;51.008;4.300;2022-08-24T10:11:43;5.17;;;3.63;;
19537;SDS011;9914;51.008;4.300;2022-08-24T10:14:30;4.37;;;2.67;;
19537;SDS011;9914;51.008;4.300;2022-08-24T10:17:30;5.87;;;4.00;;
19537;SDS011;9914;51.008;4.300;2022-08-24T10:25:40;5.23;;;3.27;;
19537;SDS011;9914;51.008;4.300;2022-08-24T10:28:46;5.30;;;3.47;;
19537;SDS011;9914;51.008;4.300;2022-08-24T10:31:26;5.13;;;2.90;;
19537;SDS011;9914;51.008;4.300;2022-08-24T10:43:23;6.43;;;2.50;;
19537;SDS011;9914;51.008;4.300;2022-08-24T10:51:11;5.10;;;2.23;;
19537;SDS011;9914;51.008;4.300;2022-08-24T10:53:47;3.63;;;2.27;;
19537;SDS011;9914;51.008;4.300;2022-08-24T10:56:16;3.83;;;2.40;;
19537;SDS011;9914;51.008;4.300;2022-08-24T10:58:48;2.73;;;2.17;;
19537;SDS011;9914;51.008;4.300;2022-08-24T11:01:22;2.47;;;2.10;;
19537;SDS011;9914;51.008;4.300;2022-08-24T11:03:56;4.83;;;2.27;;
19537;SDS011;9914;51.008;4.300;2022-08-24T11:06:34;2.63;;;2.00;;
19537;SDS011;9914;51.008;4.300;2022-08-24T11:11:44;2.70;;;1.80;;
19537;SDS011;9914;51.008;4.300;2022-08-24T11:16:40;4.57;;;2.40;;
19537;SDS011;9914;51.008;4.300;2022-08-24T11:19:10;2.93;;;1.60;;
19537;SDS011;9914;51.008;4.300;2022-08-24T11:21:42;2.13;;;1.40;;
19537;SDS011;9914;51.008;4.300;2022-08-24T11:24:22;2.27;;;1.57;;
19537;SDS011;9914;51.008;4.300;2022-08-24T11:30:05;3.27;;;1.60;;
19537;SDS011;9914;51.008;4.300;2022-08-24T11:32:46;3.93;;;1.63;;
19537;SDS011;9914;51.008;4.300;2022-08-24T11:38:07;1.53;;;1.40;;
19537;SDS011;9914;51.008;4.300;2022-08-24T11:40:42;2.30;;;1.67;;
19537;SDS011;9914;51.008;4.300;2022-08-24T11:43:23;1.53;;;1.40;;
19537;SDS011;9914;51.008;4.300;2022-08-24T11:57:10;4.73;;;1.70;;
19537;SDS011;9914;51.008;4.300;2022-08-24T12:00:07;3.37;;;2.00;;
19537;SDS011;9914;51.008;4.300;2022-08-24T12:05:42;2.33;;;1.60;;
19537;SDS011;9914;51.008;4.300;2022-08-24T12:10:50;3.03;;;1.40;;
19537;SDS011;9914;51.008;4.300;2022-08-24T12:18:52;3.67;;;1.50;;
19537;SDS011;9914;51.008;4.300;2022-08-24T12:21:27;3.60;;;1.90;;
19537;SDS011;9914;51.008;4.300;2022-08-24T12:26:26;5.73;;;1.77;;
19537;SDS011;9914;51.008;4.300;2022-08-24T12:29:04;1.80;;;1.43;;
19537;SDS011;9914;51.008;4.300;2022-08-24T12:34:03;3.73;;;1.60;;
19537;SDS011;9914;51.008;4.300;2022-08-24T12:39:38;4.27;;;1.63;;
19537;SDS011;9914;51.008;4.300;2022-08-24T12:42:16;2.80;;;1.60;;
19537;SDS011;9914;51.008;4.300;2022-08-24T12:44:49;3.53;;;1.50;;
19537;SDS011;9914;51.008;4.300;2022-08-24T12:47:26;3.23;;;1.83;;
19537;SDS011;9914;51.008;4.300;2022-08-24T12:50:10;4.77;;;1.60;;
19537;SDS011;9914;51.008;4.300;2022-08-24T12:55:34;3.43;;;1.70;;
19537;SDS011;9914;51.008;4.300;2022-08-24T13:01:32;7.47;;;2.53;;
19537;SDS011;9914;51.008;4.300;2022-08-24T13:04:53;2.30;;;1.80;;
19537;SDS011;9914;51.008;4.300;2022-08-24T13:07:10;3.63;;;1.97;;
19537;SDS011;9914;51.008;4.300;2022-08-24T13:17:56;5.23;;;1.83;;
19537;SDS011;9914;51.008;4.300;2022-08-24T13:20:26;7.23;;;2.20;;
19537;SDS011;9914;51.008;4.300;2022-08-24T13:42:05;3.07;;;1.63;;
19537;SDS011;9914;51.008;4.300;2022-08-24T13:47:23;3.80;;;1.83;;
19537;SDS011;9914;51.008;4.300;2022-08-24T13:55:40;3.47;;;1.93;;
19537;SDS011;9914;51.008;4.300;2022-08-24T14:03:52;5.97;;;2.07;;
19537;SDS011;9914;51.008;4.300;2022-08-24T14:06:29;3.13;;;1.70;;
19537;SDS011;9914;51.008;4.300;2022-08-24T14:11:53;3.63;;;1.70;;
19537;SDS011;9914;51.008;4.300;2022-08-24T14:20:38;3.85;;;1.90;;
19537;SDS011;9914;51.008;4.300;2022-08-24T14:31:39;4.05;;;1.27;;
19537;SDS011;9914;51.008;4.300;2022-08-24T14:37:00;5.28;;;1.88;;
19537;SDS011;9914;51.008;4.300;2022-08-24T14:39:35;3.33;;;1.50;;
19537;SDS011;9914;51.008;4.300;2022-08-24T14:42:17;5.35;;;1.80;;
19537;SDS011;9914;51.008;4.300;2022-08-24T14:45:06;5.00;;;1.50;;
19537;SDS011;9914;51.008;4.300;2022-08-24T14:50:33;2.08;;;1.50;;
19537;SDS011;9914;51.008;4.300;2022-08-24T15:01:48;1.75;;;1.50;;
19537;SDS011;9914;51.008;4.300;2022-08-24T15:04:29;2.58;;;1.50;;
19537;SDS011;9914;51.008;4.300;2022-08-24T15:09:35;2.03;;;1.58;;
19537;SDS011;9914;51.008;4.300;2022-08-24T15:14:47;3.55;;;1.67;;
19537;SDS011;9914;51.008;4.300;2022-08-24T15:17:20;3.10;;;1.60;;
19537;SDS011;9914;51.008;4.300;2022-08-24T15:20:14;3.90;;;1.67;;
19537;SDS011;9914;51.008;4.300;2022-08-24T15:22:44;2.40;;;1.60;;
19537;SDS011;9914;51.008;4.300;2022-08-24T15:28:27;3.67;;;1.83;;
19537;SDS011;9914;51.008;4.300;2022-08-24T15:33:28;4.97;;;1.80;;
19537;SDS011;9914;51.008;4.300;2022-08-24T15:36:15;2.53;;;1.40;;
19537;SDS011;9914;51.008;4.300;2022-08-24T15:38:42;1.77;;;1.67;;
19537;SDS011;9914;51.008;4.300;2022-08-24T15:49:12;2.13;;;1.57;;
19537;SDS011;9914;51.008;4.300;2022-08-24T15:57:00;3.93;;;1.43;;
19537;SDS011;9914;51.008;4.300;2022-08-24T16:07:56;6.13;;;1.93;;
19537;SDS011;9914;51.008;4.300;2022-08-24T16:15:50;2.83;;;1.47;;
19537;SDS011;9914;51.008;4.300;2022-08-24T16:18:16;8.47;;;2.03;;
19537;SDS011;9914;51.008;4.300;2022-08-24T16:20:44;6.23;;;1.80;;
19537;SDS011;9914;51.008;4.300;2022-08-24T16:23:21;4.57;;;1.90;;
19537;SDS011;9914;51.008;4.300;2022-08-24T16:26:26;3.57;;;1.53;;
19537;SDS011;9914;51.008;4.300;2022-08-24T16:28:51;5.43;;;1.80;;
19537;SDS011;9914;51.008;4.300;2022-08-24T16:34:48;4.90;;;1.60;;
19537;SDS011;9914;51.008;4.300;2022-08-24T16:36:56;3.40;;;1.60;;
19537;SDS011;9914;51.008;4.300;2022-08-24T16:39:22;8.77;;;1.90;;
19537;SDS011;9914;51.008;4.300;2022-08-24T16:41:50;4.22;;;1.65;;
19537;SDS011;9914;51.008;4.300;2022-08-24T16:44:22;3.58;;;1.83;;
19537;SDS011;9914;51.008;4.300;2022-08-24T16:46:49;3.60;;;2.00;;
19537;SDS011;9914;51.008;4.300;2022-08-24T16:49:15;4.55;;;1.83;;
19537;SDS011;9914;51.008;4.300;2022-08-24T16:51:40;2.90;;;2.10;;
19537;SDS011;9914;51.008;4.300;2022-08-24T16:54:06;4.82;;;2.20;;
19537;SDS011;9914;51.008;4.300;2022-08-24T16:56:31;6.57;;;2.45;;
19537;SDS011;9914;51.008;4.300;2022-08-24T16:58:57;5.10;;;2.65;;
19537;SDS011;9914;51.008;4.300;2022-08-24T17:01:23;5.88;;;2.22;;
19537;SDS011;9914;51.008;4.300;2022-08-24T17:03:49;2.35;;;1.95;;
19537;SDS011;9914;51.008;4.300;2022-08-24T17:06:15;5.57;;;2.90;;
19537;SDS011;9914;51.008;4.300;2022-08-24T17:08:43;4.72;;;3.63;;
19537;SDS011;9914;51.008;4.300;2022-08-24T17:11:09;6.40;;;3.08;;
19537;SDS011;9914;51.008;4.300;2022-08-24T17:13:35;2.58;;;2.33;;
19537;SDS011;9914;51.008;4.300;2022-08-24T17:16:00;4.60;;;3.30;;
19537;SDS011;9914;51.008;4.300;2022-08-24T17:18:26;4.22;;;3.42;;
19537;SDS011;9914;51.008;4.300;2022-08-24T17:20:52;3.15;;;2.40;;
19537;SDS011;9914;51.008;4.300;2022-08-24T17:23:18;3.95;;;2.13;;
19537;SDS011;9914;51.008;4.300;2022-08-24T17:25:44;4.47;;;2.30;;
19537;SDS011;9914;51.008;4.300;2022-08-24T17:28:11;4.60;;;2.20;;
19537;SDS011;9914;51.008;4.300;2022-08-24T17:30:40;3.70;;;2.47;;
19537;SDS011;9914;51.008;4.300;2022-08-24T17:33:06;10.60;;;3.43;;
19537;SDS011;9914;51.008;4.300;2022-08-24T17:35:32;4.93;;;2.33;;
19537;SDS011;9914;51.008;4.300;2022-08-24T17:37:58;4.07;;;2.87;;
19537;SDS011;9914;51.008;4.300;2022-08-24T17:40:24;4.23;;;2.60;;
19537;SDS011;9914;51.008;4.300;2022-08-24T17:42:52;4.87;;;2.67;;
19537;SDS011;9914;51.008;4.300;2022-08-24T17:45:18;6.17;;;2.60;;
19537;SDS011;9914;51.008;4.300;2022-08-24T17:47:46;5.00;;;2.80;;
19537;SDS011;9914;51.008;4.300;2022-08-24T17:50:14;3.83;;;2.40;;
19537;SDS011;9914;51.008;4.300;2022-08-24T17:52:41;4.43;;;2.33;;
19537;SDS011;9914;51.008;4.300;2022-08-24T17:55:08;7.40;;;2.47;;
19537;SDS011;9914;51.008;4.300;2022-08-24T17:57:35;2.63;;;2.33;;
19537;SDS011;9914;51.008;4.300;2022-08-24T18:00:03;4.93;;;2.30;;
19537;SDS011;9914;51.008;4.300;2022-08-24T18:02:30;2.90;;;2.57;;
19537;SDS011;9914;51.008;4.300;2022-08-24T18:04:55;4.40;;;2.33;;
19537;SDS011;9914;51.008;4.300;2022-08-24T18:07:21;4.50;;;2.70;;
19537;SDS011;9914;51.008;4.300;2022-08-24T18:09:49;3.50;;;2.60;;
19537;SDS011;9914;51.008;4.300;2022-08-24T18:12:17;4.40;;;2.20;;
19537;SDS011;9914;51.008;4.300;2022-08-24T18:14:44;4.50;;;2.60;;
19537;SDS011;9914;51.008;4.300;2022-08-24T18:17:11;5.67;;;2.77;;
19537;SDS011;9914;51.008;4.300;2022-08-24T18:19:40;5.07;;;2.33;;
19537;SDS011;9914;51.008;4.300;2022-08-24T18:22:08;5.50;;;2.73;;
19537;SDS011;9914;51.008;4.300;2022-08-24T18:24:34;6.57;;;2.53;;
19537;SDS011;9914;51.008;4.300;2022-08-24T18:27:00;3.60;;;2.30;;
19537;SDS011;9914;51.008;4.300;2022-08-24T18:29:29;5.23;;;2.43;;
19537;SDS011;9914;51.008;4.300;2022-08-24T18:31:56;3.57;;;2.47;;
19537;SDS011;9914;51.008;4.300;2022-08-24T18:34:22;8.20;;;2.60;;
19537;SDS011;9914;51.008;4.300;2022-08-24T18:36:49;4.90;;;2.60;;
19537;SDS011;9914;51.008;4.300;2022-08-24T18:39:16;3.83;;;2.70;;
19537;SDS011;9914;51.008;4.300;2022-08-24T18:41:43;6.70;;;2.50;;
19537;SDS011;9914;51.008;4.300;2022-08-24T18:44:11;4.20;;;2.43;;
19537;SDS011;9914;51.008;4.300;2022-08-24T18:46:40;6.57;;;2.50;;
19537;SDS011;9914;51.008;4.300;2022-08-24T18:49:06;5.53;;;2.80;;
19537;SDS011;9914;51.008;4.300;2022-08-24T18:51:32;5.17;;;2.70;;
19537;SDS011;9914;51.008;4.300;2022-08-24T18:54:01;5.10;;;2.37;;
19537;SDS011;9914;51.008;4.300;2022-08-24T18:56:32;6.40;;;2.93;;
19537;SDS011;9914;51.008;4.300;2022-08-24T18:58:58;4.13;;;2.80;;
19537;SDS011;9914;51.008;4.300;2022-08-24T19:01:24;4.97;;;2.60;;
19537;SDS011;9914;51.008;4.300;2022-08-24T19:03:52;5.73;;;2.70;;
19537;SDS011;9914;51.008;4.300;2022-08-24T19:06:19;5.57;;;2.70;;
19537;SDS011;9914;51.008;4.300;2022-08-24T19:08:45;4.67;;;2.70;;
19537;SDS011;9914;51.008;4.300;2022-08-24T19:11:11;4.97;;;2.60;;
19537;SDS011;9914;51.008;4.300;2022-08-24T19:13:38;4.33;;;2.70;;
19537;SDS011;9914;51.008;4.300;2022-08-24T19:16:04;4.30;;;2.40;;
19537;SDS011;9914;51.008;4.300;2022-08-24T19:18:30;3.17;;;2.50;;
19537;SDS011;9914;51.008;4.300;2022-08-24T19:20:56;6.63;;;3.00;;
19537;SDS011;9914;51.008;4.300;2022-08-24T19:23:26;3.73;;;2.40;;
19537;SDS011;9914;51.008;4.300;2022-08-24T19:25:54;3.60;;;2.53;;
19537;SDS011;9914;51.008;4.300;2022-08-24T19:28:21;4.20;;;2.70;;
19537;SDS011;9914;51.008;4.300;2022-08-24T19:30:47;3.10;;;2.57;;